createdAt,value
2019-01-25T00:00:47.976Z,14.1
2019-01-25T00:01:45.556Z,13.5
2019-01-25T00:02:43.142Z,13.8
2019-01-25T00:03:41.691Z,13.7
2019-01-25T00:04:39.276Z,14.0
2019-01-25T00:05:37.666Z,13.6
2019-01-25T00:06:35.272Z,13.6
2019-01-25T00:07:32.869Z,14.4
2019-01-25T00:08:30.447Z,13.5
2019-01-25T00:09:28.036Z,13.1
2019-01-25T00:10:26.492Z,12.9
2019-01-25T00:11:24.139Z,13.4
2019-01-25T00:12:21.755Z,13.2
2019-01-25T00:13:19.340Z,14.0
2019-01-25T00:14:16.940Z,13.2
2019-01-25T00:15:15.366Z,14.0
2019-01-25T00:16:12.998Z,12.7
2019-01-25T00:17:10.784Z,13.1
2019-01-25T00:18:08.472Z,13.7
2019-01-25T00:19:06.123Z,13.5
2019-01-25T00:20:04.776Z,13.2
2019-01-25T00:21:02.381Z,13.3
2019-01-25T00:22:03.036Z,12.6
2019-01-25T00:23:03.451Z,14.0
2019-01-25T00:24:01.941Z,12.4
2019-01-25T00:25:00.352Z,13.7
2019-01-25T00:25:58.703Z,12.3
2019-01-25T00:26:56.327Z,12.1
2019-01-25T00:27:54.046Z,12.6
2019-01-25T00:28:52.541Z,12.5
2019-01-25T00:29:50.115Z,12.3
2019-01-25T00:30:47.742Z,12.6
2019-01-25T00:31:45.338Z,12.8
2019-01-25T00:32:43.889Z,12.7
2019-01-25T00:33:41.515Z,12.8
2019-01-25T00:34:39.223Z,13.8
2019-01-25T00:35:37.778Z,12.6
2019-01-25T00:36:35.396Z,12.7
2019-01-25T00:37:33.039Z,12.8
2019-01-25T00:38:30.646Z,12.9
2019-01-25T00:39:29.089Z,13.5
2019-01-25T00:40:26.749Z,13.9
2019-01-25T00:41:25.164Z,12.9
2019-01-25T00:42:22.807Z,12.7
2019-01-25T00:43:20.466Z,13.1
2019-01-25T00:44:18.939Z,11.8
2019-01-25T00:45:17.341Z,12.5
2019-01-25T00:46:15.743Z,12.6
2019-01-25T00:47:14.127Z,12.5
2019-01-25T00:48:12.479Z,11.6
2019-01-25T00:49:10.847Z,13.4
2019-01-25T00:50:12.904Z,13.1
2019-01-25T00:51:11.357Z,12.1
2019-01-25T00:52:08.972Z,12.1
2019-01-25T00:53:06.641Z,12.3
2019-01-25T00:54:04.493Z,12.5
2019-01-25T00:55:02.080Z,13.1
2019-01-25T00:55:59.686Z,12.0
2019-01-25T00:56:57.346Z,13.0
2019-01-25T00:57:54.948Z,12.3
2019-01-25T00:58:53.337Z,12.3
2019-01-25T00:59:50.940Z,12.2
2019-01-25T01:00:48.533Z,13.1
2019-01-25T01:01:46.126Z,12.3
2019-01-25T01:02:43.794Z,12.8
2019-01-25T01:03:41.428Z,12.7
2019-01-25T01:04:39.040Z,12.6
2019-01-25T01:05:36.645Z,12.8
2019-01-25T01:06:34.261Z,12.8
2019-01-25T01:07:31.879Z,12.7
2019-01-25T01:08:30.293Z,12.9
2019-01-25T01:09:27.904Z,13.0
2019-01-25T01:10:25.553Z,12.3
2019-01-25T01:11:23.928Z,12.6
2019-01-25T01:12:21.559Z,13.2
2019-01-25T01:13:20.011Z,13.1
2019-01-25T01:14:17.632Z,12.1
2019-01-25T01:15:15.255Z,12.0
2019-01-25T01:16:12.900Z,11.8
2019-01-25T01:17:11.294Z,12.4
2019-01-25T01:18:08.952Z,12.0
2019-01-25T01:19:06.613Z,12.0
2019-01-25T01:20:07.269Z,12.5
2019-01-25T01:21:04.889Z,11.7
2019-01-25T01:22:02.501Z,11.7
2019-01-25T01:23:00.871Z,13.0
2019-01-25T01:23:59.266Z,12.4
2019-01-25T01:24:56.931Z,13.2
2019-01-25T01:25:55.338Z,12.0
2019-01-25T01:26:53.732Z,11.6
2019-01-25T01:27:51.368Z,12.9
2019-01-25T01:28:49.738Z,13.4
2019-01-25T01:29:48.144Z,12.3
2019-01-25T01:30:46.559Z,13.3
2019-01-25T01:31:44.999Z,12.9
2019-01-25T01:32:42.667Z,11.6
2019-01-25T01:33:40.279Z,11.8
2019-01-25T01:34:38.672Z,12.5
2019-01-25T01:35:36.284Z,12.5
2019-01-25T01:36:34.671Z,12.9
2019-01-25T01:37:32.339Z,13.0
2019-01-25T01:38:30.697Z,13.1
2019-01-25T01:39:29.092Z,12.2
2019-01-25T01:40:26.707Z,11.9
2019-01-25T01:41:24.842Z,13.2
2019-01-25T01:42:23.225Z,12.5
2019-01-25T01:43:21.676Z,12.4
2019-01-25T01:44:20.112Z,11.5
2019-01-25T01:45:17.782Z,13.3
2019-01-25T01:46:16.198Z,12.7
2019-01-25T01:47:13.837Z,12.1
2019-01-25T01:48:12.253Z,12.5
2019-01-25T01:49:09.978Z,12.1
2019-01-25T01:50:10.326Z,12.3
2019-01-25T01:51:07.931Z,11.9
2019-01-25T01:52:05.560Z,12.5
2019-01-25T01:53:03.927Z,12.5
2019-01-25T01:54:02.350Z,12.2
2019-01-25T01:54:59.991Z,12.7
2019-01-25T01:55:58.417Z,12.9
2019-01-25T01:56:56.842Z,12.3
2019-01-25T01:57:54.432Z,12.5
2019-01-25T01:58:52.872Z,12.4
2019-01-25T01:59:50.498Z,11.5
2019-01-25T02:00:48.869Z,12.4
2019-01-25T02:01:46.467Z,11.4
2019-01-25T02:02:44.836Z,12.5
2019-01-25T02:03:43.243Z,12.4
2019-01-25T02:04:40.911Z,12.6
2019-01-25T02:05:39.305Z,12.6
2019-01-25T02:06:36.914Z,11.1
2019-01-25T02:07:35.328Z,12.8
2019-01-25T02:08:33.040Z,12.7
2019-01-25T02:09:30.655Z,12.5
2019-01-25T02:10:29.776Z,11.3
2019-01-25T02:11:26.755Z,11.5
2019-01-25T02:12:24.409Z,12.0
2019-01-25T02:13:22.879Z,12.4
2019-01-25T02:14:21.271Z,12.4
2019-01-25T02:15:20.328Z,12.0
2019-01-25T02:16:17.978Z,11.8
2019-01-25T02:17:15.616Z,11.4
2019-01-25T02:18:13.264Z,11.7
2019-01-25T02:19:11.081Z,11.9
2019-01-25T02:20:12.032Z,12.5
2019-01-25T02:21:09.670Z,12.0
2019-01-25T02:22:07.310Z,11.9
2019-01-25T02:23:05.720Z,11.5
2019-01-25T02:24:04.111Z,11.9
2019-01-25T02:25:01.727Z,11.6
2019-01-25T02:26:00.148Z,12.4
2019-01-25T02:26:57.744Z,13.1
2019-01-25T02:27:56.160Z,12.2
2019-01-25T02:28:53.783Z,12.1
2019-01-25T02:29:51.432Z,12.2
2019-01-25T02:30:49.048Z,12.8
2019-01-25T02:31:46.653Z,10.8
2019-01-25T02:32:45.000Z,11.8
2019-01-25T02:33:43.376Z,11.6
2019-01-25T02:34:41.026Z,12.5
2019-01-25T02:35:38.628Z,12.1
2019-01-25T02:36:37.000Z,13.2
2019-01-25T02:37:35.363Z,11.8
2019-01-25T02:38:34.044Z,11.9
2019-01-25T02:39:31.662Z,11.5
2019-01-25T02:40:38.414Z,12.8
2019-01-25T02:41:26.892Z,12.4
2019-01-25T02:42:24.528Z,11.0
2019-01-25T02:43:22.950Z,12.5
2019-01-25T02:44:20.604Z,12.5
2019-01-25T02:45:18.337Z,11.7
2019-01-25T02:46:15.977Z,11.9
2019-01-25T02:47:14.416Z,11.7
2019-01-25T02:48:12.028Z,12.1
2019-01-25T02:49:10.490Z,11.4
2019-01-25T02:50:11.583Z,11.7
2019-01-25T02:51:10.000Z,12.0
2019-01-25T02:52:07.750Z,12.3
2019-01-25T02:53:05.341Z,11.9
2019-01-25T02:54:02.955Z,12.2
2019-01-25T02:55:00.624Z,11.3
2019-01-25T02:55:59.019Z,11.7
2019-01-25T02:56:56.632Z,12.7
2019-01-25T02:57:54.244Z,11.5
2019-01-25T02:58:51.883Z,11.8
2019-01-25T02:59:50.264Z,11.2
2019-01-25T03:00:47.920Z,12.6
2019-01-25T03:01:45.539Z,11.4
2019-01-25T03:02:43.156Z,11.9
2019-01-25T03:03:40.767Z,12.3
2019-01-25T03:04:38.378Z,11.0
2019-01-25T03:05:36.762Z,12.6
2019-01-25T03:06:35.164Z,13.2
2019-01-25T03:07:32.792Z,11.9
2019-01-25T03:08:31.191Z,10.5
2019-01-25T03:09:28.866Z,11.4
2019-01-25T03:10:28.847Z,11.8
2019-01-25T03:11:24.956Z,11.6
2019-01-25T03:12:22.603Z,12.4
2019-01-25T03:13:20.249Z,11.6
2019-01-25T03:14:18.712Z,12.2
2019-01-25T03:15:18.978Z,12.6
2019-01-25T03:16:17.328Z,12.4
2019-01-25T03:17:14.965Z,11.5
2019-01-25T03:18:12.619Z,11.3
2019-01-25T03:19:11.020Z,12.3
2019-01-25T03:20:09.300Z,12.0
2019-01-25T03:21:06.925Z,12.6
2019-01-25T03:22:04.564Z,11.7
2019-01-25T03:23:02.208Z,12.1
2019-01-25T03:24:00.610Z,11.0
2019-01-25T03:24:59.015Z,12.5
2019-01-25T03:25:57.435Z,11.5
2019-01-25T03:26:55.830Z,10.5
2019-01-25T03:27:53.448Z,11.9
2019-01-25T03:28:51.841Z,11.2
2019-01-25T03:29:49.500Z,11.3
2019-01-25T03:30:47.165Z,12.2
2019-01-25T03:31:44.796Z,11.4
2019-01-25T03:32:42.456Z,11.7
2019-01-25T03:33:40.107Z,11.0
2019-01-25T03:34:38.479Z,12.1
2019-01-25T03:35:37.694Z,12.5
2019-01-25T03:36:36.088Z,12.1
2019-01-25T03:37:33.776Z,11.4
2019-01-25T03:38:31.404Z,11.3
2019-01-25T03:39:29.932Z,12.0
2019-01-25T03:40:28.360Z,10.9
2019-01-25T03:41:26.054Z,11.2
2019-01-25T03:42:24.485Z,12.3
2019-01-25T03:43:22.204Z,10.9
2019-01-25T03:44:19.809Z,11.2
2019-01-25T03:45:17.497Z,10.8
2019-01-25T03:46:15.892Z,12.5
2019-01-25T03:47:14.318Z,11.4
2019-01-25T03:48:12.737Z,10.7
2019-01-25T03:49:10.386Z,11.2
2019-01-25T03:50:10.407Z,11.3
2019-01-25T03:51:08.828Z,12.1
2019-01-25T03:52:07.232Z,11.0
2019-01-25T03:53:05.604Z,11.9
2019-01-25T03:54:04.078Z,12.1
2019-01-25T03:55:02.471Z,11.5
2019-01-25T03:56:00.867Z,11.2
2019-01-25T03:56:59.293Z,11.3
2019-01-25T03:57:57.678Z,12.8
2019-01-25T03:58:56.159Z,11.6
2019-01-25T03:59:53.775Z,11.3
2019-01-25T04:00:51.421Z,11.1
2019-01-25T04:01:49.822Z,11.7
2019-01-25T04:02:47.459Z,11.0
2019-01-25T04:03:45.082Z,12.1
2019-01-25T04:04:42.681Z,11.0
2019-01-25T04:05:40.301Z,11.8
2019-01-25T04:06:37.902Z,10.6
2019-01-25T04:07:36.321Z,11.9
2019-01-25T04:08:34.740Z,12.0
2019-01-25T04:09:33.173Z,11.7
2019-01-25T04:10:31.637Z,11.3
2019-01-25T04:11:30.013Z,11.9
2019-01-25T04:12:27.619Z,11.5
2019-01-25T04:13:26.033Z,11.5
2019-01-25T04:14:23.778Z,11.4
2019-01-25T04:15:23.214Z,11.6
2019-01-25T04:16:21.606Z,11.4
2019-01-25T04:17:19.999Z,12.2
2019-01-25T04:18:17.642Z,11.3
2019-01-25T04:19:15.305Z,11.0
2019-01-25T04:20:14.612Z,12.3
2019-01-25T04:21:13.051Z,11.3
2019-01-25T04:22:11.473Z,10.4
2019-01-25T04:23:09.143Z,12.0
2019-01-25T04:24:07.564Z,11.7
2019-01-25T04:25:06.979Z,11.6
2019-01-25T04:26:04.639Z,11.6
2019-01-25T04:27:02.279Z,10.9
2019-01-25T04:27:59.933Z,12.6
2019-01-25T04:28:57.771Z,11.3
2019-01-25T04:29:56.191Z,11.0
2019-01-25T04:30:54.594Z,12.0
2019-01-25T04:31:53.044Z,11.8
2019-01-25T04:32:51.531Z,11.8
2019-01-25T04:33:49.169Z,11.5
2019-01-25T04:34:46.788Z,11.5
2019-01-25T04:35:45.232Z,12.1
2019-01-25T04:36:42.892Z,12.6
2019-01-25T04:37:42.031Z,11.7
2019-01-25T04:38:40.413Z,11.3
2019-01-25T04:39:38.092Z,12.2
2019-01-25T04:40:35.775Z,12.3
2019-01-25T04:41:34.191Z,11.8
2019-01-25T04:42:32.613Z,11.4
2019-01-25T04:43:30.228Z,11.2
2019-01-25T04:44:28.596Z,11.7
2019-01-25T04:45:26.225Z,12.0
2019-01-25T04:46:24.652Z,11.6
2019-01-25T04:47:26.709Z,12.5
2019-01-25T04:48:25.248Z,12.1
2019-01-25T04:49:23.037Z,11.7
2019-01-25T04:50:22.409Z,11.4
2019-01-25T04:51:20.126Z,12.0
2019-01-25T04:52:17.798Z,12.4
2019-01-25T04:53:15.467Z,11.3
2019-01-25T04:54:13.101Z,11.2
2019-01-25T04:55:14.665Z,11.6
2019-01-25T04:56:12.259Z,11.3
2019-01-25T04:57:10.624Z,12.2
2019-01-25T04:58:14.152Z,11.5
2019-01-25T04:59:11.784Z,11.4
2019-01-25T05:00:10.444Z,11.9
2019-01-25T05:01:09.658Z,11.7
2019-01-25T05:02:08.035Z,11.2
2019-01-25T05:03:05.678Z,11.5
2019-01-25T05:04:04.176Z,10.6
2019-01-25T05:05:02.697Z,11.0
2019-01-25T05:06:00.325Z,12.3
2019-01-25T05:06:58.745Z,12.3
2019-01-25T05:08:02.978Z,11.7
2019-01-25T05:09:00.628Z,11.1
2019-01-25T05:09:58.274Z,12.2
2019-01-25T05:10:55.900Z,10.8
2019-01-25T05:11:53.585Z,11.7
2019-01-25T05:12:53.239Z,11.8
2019-01-25T05:13:50.675Z,11.3
2019-01-25T05:14:48.309Z,11.2
2019-01-25T05:15:46.721Z,11.9
2019-01-25T05:16:44.341Z,11.4
2019-01-25T05:17:42.745Z,12.1
2019-01-25T05:18:40.329Z,11.6
2019-01-25T05:19:38.905Z,11.8
2019-01-25T05:20:36.520Z,12.1
2019-01-25T05:21:34.191Z,12.2
2019-01-25T05:22:31.860Z,11.1
2019-01-25T05:23:29.469Z,11.2
2019-01-25T05:24:27.216Z,10.8
2019-01-25T05:25:25.696Z,11.8
2019-01-25T05:26:23.386Z,11.9
2019-01-25T05:27:21.044Z,10.5
2019-01-25T05:28:19.619Z,12.1
2019-01-25T05:29:18.016Z,11.3
2019-01-25T05:30:15.611Z,12.2
2019-01-25T05:31:13.677Z,10.8
2019-01-25T05:32:11.333Z,11.9
2019-01-25T05:33:08.979Z,11.9
2019-01-25T05:34:07.392Z,11.4
2019-01-25T05:35:05.084Z,11.4
2019-01-25T05:36:02.795Z,11.3
2019-01-25T05:37:01.165Z,10.9
2019-01-25T05:37:58.814Z,12.1
2019-01-25T05:38:57.260Z,12.6
2019-01-25T05:39:54.899Z,11.4
2019-01-25T05:40:52.521Z,11.7
2019-01-25T05:41:52.145Z,12.3
2019-01-25T05:42:49.776Z,12.5
2019-01-25T05:43:47.396Z,11.6
2019-01-25T05:44:45.067Z,12.2
2019-01-25T05:45:43.955Z,11.6
2019-01-25T05:46:41.610Z,11.9
2019-01-25T05:47:39.222Z,11.2
2019-01-25T05:48:37.692Z,10.9
2019-01-25T05:49:36.105Z,10.3
2019-01-25T05:50:34.473Z,11.2
2019-01-25T05:51:33.773Z,11.5
2019-01-25T05:52:31.808Z,11.2
2019-01-25T05:53:29.430Z,10.1
2019-01-25T05:54:27.863Z,10.9
2019-01-25T05:55:26.276Z,10.0
2019-01-25T05:56:24.634Z,9.9
2019-01-25T05:57:23.291Z,10.7
2019-01-25T05:58:21.718Z,10.6
2019-01-25T05:59:23.883Z,10.5
2019-01-25T06:00:21.590Z,9.9
2019-01-25T06:01:19.376Z,9.7
2019-01-25T06:02:19.414Z,10.1
2019-01-25T06:03:17.038Z,10.1
2019-01-25T06:04:15.894Z,9.8
2019-01-25T06:05:14.489Z,9.2
2019-01-25T06:06:13.883Z,9.6
2019-01-25T06:07:12.304Z,9.4
2019-01-25T06:08:13.117Z,8.4
2019-01-25T06:09:11.970Z,9.3
2019-01-25T06:10:09.644Z,8.4
2019-01-25T06:11:08.213Z,8.5
2019-01-25T06:12:05.888Z,7.9
2019-01-25T06:13:04.494Z,8.6
2019-01-25T06:14:02.157Z,7.2
2019-01-25T06:14:59.808Z,7.6
2019-01-25T06:15:57.512Z,8.5
2019-01-25T06:16:55.149Z,7.6
2019-01-25T06:17:52.733Z,7.5
2019-01-25T06:18:51.130Z,8.3
2019-01-25T06:19:48.821Z,8.0
2019-01-25T06:20:46.677Z,9.0
2019-01-25T06:21:44.379Z,24.5
2019-01-25T06:22:41.994Z,41.5
2019-01-25T06:23:41.055Z,44.2
2019-01-25T06:24:38.812Z,45.5
2019-01-25T06:25:36.439Z,43.6
2019-01-25T06:26:34.217Z,40.4
2019-01-25T06:27:37.030Z,39.2
2019-01-25T06:28:34.773Z,36.1
2019-01-25T06:29:33.524Z,33.1
2019-01-25T06:30:31.908Z,34.0
2019-01-25T06:31:30.296Z,33.5
2019-01-25T06:32:28.688Z,30.5
2019-01-25T06:33:27.896Z,30.3
2019-01-25T06:34:26.691Z,29.1
2019-01-25T06:35:25.962Z,26.7
2019-01-25T06:36:21.995Z,26.5
2019-01-25T06:37:20.997Z,26.2
2019-01-25T06:38:18.591Z,23.9
2019-01-25T06:39:16.252Z,24.6
2019-01-25T06:40:13.900Z,23.5
2019-01-25T06:41:11.513Z,22.7
2019-01-25T06:42:10.366Z,22.3
2019-01-25T17:24:18.303Z,14.7
2019-01-25T17:25:16.710Z,16.2
2019-01-25T17:26:15.002Z,22.3
2019-01-25T17:27:12.039Z,24.2
2019-01-25T17:28:10.271Z,18.0
2019-01-25T17:29:08.685Z,18.9
2019-01-25T17:30:10.417Z,22.2
2019-01-25T17:31:08.795Z,21.7
2019-01-25T17:32:06.423Z,22.1
2019-01-25T17:33:04.796Z,26.4
2019-01-25T17:34:02.451Z,27.0
2019-01-25T17:35:00.286Z,24.4
2019-01-25T17:35:57.920Z,24.8
2019-01-25T17:36:55.589Z,21.5
2019-01-25T17:37:54.004Z,21.7
2019-01-25T17:38:52.328Z,19.7
2019-01-25T17:39:50.985Z,18.5
2019-01-25T17:40:48.921Z,18.0
2019-01-25T17:41:47.312Z,20.0
2019-01-25T17:42:45.677Z,18.3
2019-01-25T17:43:43.293Z,17.7
2019-01-25T17:44:41.409Z,17.4
2019-01-25T17:45:38.640Z,17.9
2019-01-25T17:46:36.265Z,17.2
2019-01-25T17:47:33.900Z,19.0
2019-01-25T17:48:31.529Z,17.2
2019-01-25T17:49:29.156Z,17.2
2019-01-25T17:50:27.528Z,16.4
2019-01-25T17:51:27.267Z,16.9
2019-01-25T17:52:24.416Z,15.8
2019-01-25T17:53:22.103Z,16.2
2019-01-25T17:54:19.769Z,15.8
2019-01-25T17:55:18.159Z,15.2
2019-01-25T17:56:15.785Z,15.0
2019-01-25T17:57:14.158Z,15.7
2019-01-25T17:58:12.633Z,15.2
2019-01-25T17:59:11.163Z,14.3
2019-01-25T18:00:13.871Z,14.9
2019-01-25T18:01:12.261Z,14.3
2019-01-25T18:02:10.631Z,15.5
2019-01-25T18:03:14.333Z,15.4
2019-01-25T18:04:13.640Z,15.7
2019-01-25T18:05:11.311Z,14.9
2019-01-25T18:06:10.464Z,15.6
2019-01-25T18:07:08.107Z,14.6
2019-01-25T18:08:06.551Z,16.0
2019-01-25T18:09:06.956Z,18.9
2019-01-25T18:10:07.019Z,20.3
2019-01-25T18:11:04.699Z,18.5
2019-01-25T18:12:02.954Z,18.0
2019-01-25T18:13:00.615Z,18.5
2019-01-25T18:13:58.264Z,16.9
2019-01-25T18:14:55.897Z,16.5
2019-01-25T18:15:53.497Z,16.8
2019-01-25T18:16:51.916Z,15.3
2019-01-25T18:17:49.502Z,14.8
2019-01-25T18:18:47.556Z,15.3
2019-01-25T18:19:46.702Z,14.0
2019-01-25T18:20:44.952Z,14.6
2019-01-25T18:21:42.831Z,15.0
2019-01-25T18:22:40.584Z,14.8
2019-01-25T18:23:38.208Z,13.4
2019-01-25T18:24:36.564Z,14.0
2019-01-25T18:25:42.891Z,13.5
2019-01-25T18:26:41.424Z,13.6
2019-01-25T18:27:41.666Z,12.4
2019-01-25T18:28:49.437Z,13.7
2019-01-25T18:29:51.351Z,12.1
2019-01-25T18:30:53.876Z,12.0
2019-01-25T18:31:51.594Z,12.8
2019-01-25T18:32:49.832Z,11.7
2019-01-25T18:33:48.216Z,12.6
2019-01-25T18:34:45.821Z,12.8
2019-01-25T18:35:45.960Z,11.6
2019-01-25T18:36:44.374Z,12.3
2019-01-25T18:37:42.099Z,11.4
2019-01-25T18:38:39.879Z,11.5
2019-01-25T18:39:38.019Z,10.6
2019-01-25T18:40:36.175Z,11.6
2019-01-25T18:41:36.447Z,12.6
2019-01-25T18:42:35.323Z,10.8
2019-01-25T18:43:35.258Z,11.2
2019-01-25T18:44:33.997Z,10.7
2019-01-25T18:45:32.574Z,11.0
2019-01-25T18:46:31.061Z,10.9
2019-01-25T18:47:29.501Z,10.2
2019-01-25T18:48:28.502Z,10.6
2019-01-25T18:49:26.959Z,11.0
2019-01-25T18:50:24.616Z,11.1
2019-01-25T18:51:22.721Z,10.3
2019-01-25T18:52:22.637Z,10.1
2019-01-25T18:53:21.966Z,10.5
2019-01-25T18:54:21.005Z,11.2
2019-01-25T18:55:20.598Z,10.2
2019-01-25T18:56:20.884Z,10.1
2019-01-25T18:57:19.724Z,10.9
2019-01-25T18:58:18.279Z,11.9
2019-01-25T18:59:16.558Z,9.5
2019-01-25T19:00:16.892Z,10.7
2019-01-25T19:01:14.617Z,10.1
2019-01-25T19:02:13.388Z,10.6
2019-01-25T19:03:13.325Z,10.3
2019-01-25T19:04:11.748Z,10.0
2019-01-25T19:05:10.885Z,11.0
2019-01-25T19:06:09.111Z,9.7
2019-01-25T19:07:08.006Z,9.7
2019-01-25T19:08:05.933Z,10.2
2019-01-25T19:09:05.581Z,10.2
2019-01-25T19:10:04.428Z,10.4
2019-01-25T19:11:09.648Z,10.7
2019-01-25T19:12:08.127Z,9.3
2019-01-25T19:13:07.232Z,11.0
2019-01-25T19:14:06.343Z,10.0
2019-01-25T19:15:06.663Z,10.2
2019-01-25T19:16:05.852Z,10.5
2019-01-25T19:17:03.730Z,10.5
2019-01-25T19:18:04.026Z,10.6
2019-01-25T19:19:01.859Z,10.0
2019-01-25T19:19:59.506Z,10.3
2019-01-25T19:20:57.339Z,10.6
2019-01-25T19:21:55.856Z,11.0
2019-01-25T19:22:54.203Z,10.2
2019-01-25T19:23:52.770Z,11.0
2019-01-25T19:24:50.404Z,10.0
2019-01-25T19:25:49.468Z,9.0
2019-01-25T19:26:47.960Z,10.0
2019-01-25T19:27:52.295Z,9.4
2019-01-25T19:28:49.961Z,9.8
2019-01-25T19:29:47.639Z,10.1
2019-01-25T19:30:46.472Z,9.2
2019-01-25T19:31:44.905Z,9.2
2019-01-25T19:32:43.296Z,9.8
2019-01-25T19:33:41.473Z,9.9
2019-01-25T19:34:39.226Z,9.8
2019-01-25T19:35:44.670Z,9.3
2019-01-25T19:36:42.648Z,9.5
2019-01-25T19:37:41.731Z,9.1
2019-01-25T19:38:40.315Z,9.7
2019-01-25T19:39:37.912Z,9.2
2019-01-25T19:40:35.822Z,9.7
2019-01-25T19:41:38.583Z,9.4
2019-01-25T19:42:36.391Z,9.1
2019-01-25T19:43:40.324Z,8.9
2019-01-25T19:44:38.045Z,9.8
2019-01-25T19:45:36.680Z,9.5
2019-01-25T19:46:35.076Z,8.9
2019-01-25T19:47:33.678Z,9.1
2019-01-25T19:48:31.536Z,9.2
2019-01-25T19:49:30.242Z,9.8
2019-01-25T19:50:27.904Z,8.9
2019-01-25T19:51:25.794Z,10.0
2019-01-25T19:52:24.365Z,9.5
2019-01-25T19:53:23.684Z,9.4
2019-01-25T19:54:21.041Z,8.9
2019-01-25T19:55:20.817Z,9.4
2019-01-25T19:56:19.816Z,9.3
2019-01-25T19:57:19.287Z,8.5
2019-01-25T19:58:18.669Z,9.2
2019-01-25T19:59:17.316Z,9.0
2019-01-25T20:00:20.431Z,9.4
2019-01-25T20:01:19.199Z,9.3
2019-01-25T20:02:17.704Z,9.4
2019-01-25T20:03:15.361Z,9.7
2019-01-25T20:04:13.920Z,9.0
2019-01-25T20:05:13.352Z,9.3
2019-01-25T20:06:11.976Z,9.7
2019-01-25T20:07:10.011Z,9.4
2019-01-25T20:08:08.571Z,10.0
2019-01-25T20:09:09.504Z,10.0
2019-01-25T20:10:08.379Z,9.9
2019-01-25T20:11:08.402Z,9.1
2019-01-25T20:12:06.408Z,10.2
2019-01-25T20:13:04.547Z,10.5
2019-01-25T20:14:04.484Z,9.5
2019-01-25T20:15:03.965Z,9.8
2019-01-25T20:16:01.758Z,9.3
2019-01-25T20:17:00.082Z,9.7
2019-01-25T20:17:59.145Z,9.3
2019-01-25T20:18:57.853Z,9.1
2019-01-25T20:19:56.584Z,9.4
2019-01-25T20:20:54.407Z,9.3
2019-01-25T20:21:52.968Z,8.7
2019-01-25T20:22:52.086Z,8.7
2019-01-25T20:23:49.702Z,8.8
2019-01-25T20:24:47.719Z,9.0
2019-01-25T20:25:45.323Z,8.9
2019-01-25T20:26:44.390Z,9.2
2019-01-25T20:27:42.170Z,9.0
2019-01-25T20:28:40.378Z,8.5
2019-01-25T20:29:39.909Z,8.8
2019-01-25T20:30:38.033Z,9.4
2019-01-25T20:31:37.599Z,9.3
2019-01-25T20:32:37.996Z,9.5
2019-01-25T20:33:36.928Z,8.8
2019-01-25T20:34:35.810Z,9.4
2019-01-25T20:35:35.760Z,9.5
2019-01-25T20:36:33.553Z,8.4
2019-01-25T20:37:31.781Z,9.1
2019-01-25T20:38:36.975Z,9.2
2019-01-25T20:39:35.545Z,9.5
2019-01-25T20:40:33.906Z,9.0
2019-01-25T20:41:33.080Z,9.1
2019-01-25T20:42:30.698Z,9.1
2019-01-25T20:43:29.102Z,8.2
2019-01-25T20:44:26.789Z,9.5
2019-01-25T20:45:28.664Z,9.4
2019-01-25T20:46:27.818Z,9.2
2019-01-25T20:47:26.216Z,9.7
2019-01-25T20:48:25.060Z,8.6
2019-01-25T20:49:23.439Z,10.0
2019-01-25T20:50:23.737Z,9.4
2019-01-25T20:51:22.172Z,9.2
2019-01-25T20:52:20.485Z,8.9
2019-01-25T20:53:20.349Z,9.7
2019-01-25T20:54:17.952Z,8.6
2019-01-25T20:55:16.427Z,8.5
2019-01-25T20:56:14.390Z,9.2
2019-01-25T20:57:12.036Z,8.3
2019-01-25T20:58:10.922Z,10.0
2019-01-25T20:59:08.754Z,8.0
2019-01-25T21:00:11.544Z,8.2
2019-01-25T21:01:11.296Z,8.8
2019-01-25T21:02:09.068Z,8.6
2019-01-25T21:03:09.927Z,8.2
2019-01-25T21:04:08.299Z,8.6
2019-01-25T21:05:06.785Z,8.7
2019-01-25T21:06:05.569Z,8.8
2019-01-25T21:07:04.268Z,8.6
2019-01-25T21:08:01.858Z,7.5
2019-01-25T21:08:59.591Z,8.1
2019-01-25T21:09:57.360Z,8.4
2019-01-25T21:10:55.044Z,8.2
2019-01-25T21:11:53.561Z,8.7
2019-01-25T21:12:52.769Z,9.1
2019-01-25T21:13:52.701Z,8.8
2019-01-25T21:14:52.272Z,8.3
2019-01-25T21:15:50.751Z,8.6
2019-01-25T21:16:49.011Z,9.0
2019-01-25T21:17:46.662Z,8.5
2019-01-25T21:18:45.094Z,9.2
2019-01-25T21:19:43.629Z,8.8
2019-01-25T21:20:44.355Z,8.5
2019-01-25T21:21:43.778Z,8.5
2019-01-25T21:22:43.273Z,8.8
2019-01-25T21:23:40.928Z,8.7
2019-01-25T21:24:39.455Z,8.0
2019-01-25T21:25:37.397Z,8.5
2019-01-25T21:26:35.885Z,8.8
2019-01-25T21:27:33.840Z,8.2
2019-01-25T21:28:32.493Z,7.8
2019-01-25T21:29:31.719Z,8.5
2019-01-25T21:30:30.684Z,7.6
2019-01-25T21:31:28.360Z,7.7
2019-01-25T21:32:26.997Z,8.9
2019-01-25T21:33:26.726Z,9.2
2019-01-25T21:34:25.681Z,8.9
2019-01-25T21:35:24.895Z,7.7
2019-01-25T21:36:22.514Z,8.4
2019-01-25T21:37:20.336Z,7.6
2019-01-25T21:38:19.870Z,8.2
2019-01-25T21:39:18.816Z,8.5
2019-01-25T21:40:19.321Z,8.2
2019-01-25T21:41:16.999Z,8.7
2019-01-25T21:42:15.080Z,8.5
2019-01-25T21:43:12.988Z,8.6
2019-01-25T21:44:10.586Z,9.1
2019-01-25T21:45:11.147Z,9.6
2019-01-25T21:46:09.543Z,9.1
2019-01-25T21:47:08.525Z,8.5
2019-01-25T21:48:10.004Z,8.6
2019-01-25T21:49:08.509Z,8.5
2019-01-25T21:50:09.199Z,8.7
2019-01-25T21:51:08.301Z,8.8
2019-01-25T21:52:06.867Z,8.4
2019-01-25T21:53:05.470Z,8.4
2019-01-25T21:54:03.175Z,8.5
2019-01-25T21:55:03.117Z,8.0
2019-01-25T21:56:00.894Z,8.3
2019-01-25T21:56:58.653Z,8.8
2019-01-25T21:57:56.354Z,8.7
2019-01-25T21:58:55.571Z,8.5
2019-01-25T21:59:54.638Z,8.2
2019-01-25T22:00:53.686Z,8.2
2019-01-25T22:01:52.020Z,6.9
2019-01-25T22:02:51.265Z,8.4
2019-01-25T22:03:49.004Z,7.9
2019-01-25T22:04:49.236Z,8.2
2019-01-25T22:05:47.616Z,8.5
2019-01-25T22:06:46.004Z,7.4
2019-01-25T22:07:45.123Z,7.8
2019-01-25T22:08:43.871Z,8.2
2019-01-25T22:09:41.612Z,8.5
2019-01-25T22:10:43.959Z,8.7
2019-01-25T22:11:40.992Z,8.4
2019-01-25T22:12:40.431Z,7.9
2019-01-25T22:13:39.296Z,8.4
2019-01-25T22:14:37.873Z,8.0
2019-01-25T22:15:35.677Z,6.9
2019-01-25T22:16:34.959Z,8.0
2019-01-25T22:17:32.555Z,7.8
2019-01-25T22:18:30.150Z,7.4
2019-01-25T22:19:28.653Z,7.4
2019-01-25T22:20:27.489Z,7.8
2019-01-25T22:21:26.674Z,7.5
2019-01-25T22:22:25.136Z,7.2
2019-01-25T22:23:23.164Z,7.8
2019-01-25T22:24:21.860Z,8.4
2019-01-25T22:25:20.909Z,7.5
2019-01-25T22:26:19.434Z,7.3
2019-01-25T22:27:19.810Z,7.7
2019-01-25T22:28:17.465Z,7.1
2019-01-25T22:29:16.780Z,7.5
2019-01-25T22:30:16.364Z,7.3
2019-01-25T22:31:13.994Z,8.3
2019-01-25T22:32:12.885Z,7.9
2019-01-25T22:33:10.825Z,7.4
2019-01-25T22:34:10.397Z,7.6
2019-01-25T22:35:08.909Z,7.8
2019-01-25T22:36:06.588Z,7.4
2019-01-25T22:37:04.488Z,7.7
2019-01-25T22:38:02.889Z,8.3
2019-01-25T22:39:01.261Z,8.4
2019-01-25T22:39:58.851Z,7.7
2019-01-25T22:40:57.693Z,7.6
2019-01-25T22:41:55.405Z,7.3
2019-01-25T22:42:55.093Z,7.2
2019-01-25T22:43:54.361Z,8.8
2019-01-25T22:44:53.563Z,7.7
2019-01-25T22:45:58.581Z,7.2
2019-01-25T22:46:50.852Z,8.1
2019-01-25T22:47:54.788Z,8.1
2019-01-25T22:48:54.211Z,7.6
2019-01-25T22:49:53.227Z,7.6
2019-01-25T22:50:50.877Z,8.4
2019-01-25T22:51:49.223Z,8.0
2019-01-25T22:52:47.896Z,6.9
2019-01-25T22:53:45.536Z,7.4
2019-01-25T22:54:43.136Z,7.4
2019-01-25T22:55:42.376Z,6.8
2019-01-25T22:56:41.203Z,8.1
2019-01-25T22:57:38.841Z,7.8
2019-01-25T22:58:36.433Z,7.8
2019-01-25T22:59:34.255Z,8.1
2019-01-25T23:00:39.689Z,7.5
2019-01-25T23:01:38.095Z,8.0
2019-01-25T23:02:37.877Z,6.7
2019-01-25T23:04:49.958Z,7.0
2019-01-25T23:06:01.547Z,7.7
2019-01-25T23:07:09.013Z,7.5
2019-01-25T23:08:06.873Z,7.2
2019-01-25T23:09:18.674Z,7.2
2019-01-25T23:10:19.216Z,7.2
2019-01-25T23:11:16.817Z,7.4
2019-01-25T23:12:14.723Z,7.9
2019-01-25T23:13:13.185Z,8.1
2019-01-25T23:14:11.011Z,7.4
2019-01-25T23:15:12.097Z,6.7
2019-01-25T23:16:10.552Z,7.6
2019-01-25T23:17:09.103Z,7.6
2019-01-25T23:18:06.959Z,7.3
2019-01-25T23:19:05.019Z,7.1
2019-01-25T23:20:04.190Z,6.9
2019-01-25T23:21:01.825Z,6.8
2019-01-25T23:21:59.466Z,7.6
2019-01-25T23:22:57.083Z,7.4
2019-01-25T23:23:54.880Z,7.8
2019-01-25T23:24:52.531Z,7.7
2019-01-25T23:25:50.273Z,6.1
2019-01-25T23:26:47.893Z,7.4
2019-01-25T23:27:45.540Z,8.3
2019-01-25T23:28:43.925Z,7.3
2019-01-25T23:29:42.303Z,7.2
2019-01-25T23:30:40.781Z,7.1
2019-01-25T23:31:38.573Z,7.4
2019-01-25T23:32:36.211Z,6.6
2019-01-25T23:33:33.830Z,7.3
2019-01-25T23:34:32.195Z,7.3
2019-01-25T23:35:30.903Z,7.1
2019-01-25T23:36:28.652Z,7.6
2019-01-25T23:37:27.051Z,7.1
2019-01-25T23:38:24.753Z,6.8
2019-01-25T23:39:23.150Z,7.3
2019-01-25T23:40:20.767Z,6.7
2019-01-25T23:41:19.171Z,6.3
2019-01-25T23:42:16.783Z,7.0
2019-01-25T23:43:15.160Z,6.7
2019-01-25T23:44:13.563Z,6.4
2019-01-25T23:45:11.693Z,7.3
2019-01-25T23:46:13.854Z,7.7
2019-01-25T23:47:08.563Z,7.3
2019-01-25T23:48:06.160Z,7.0
2019-01-25T23:49:03.816Z,7.4
2019-01-25T23:50:04.890Z,6.8
2019-01-25T23:51:03.334Z,6.8